Time;durP1;ratioP1;P1;durP2;ratioP2;P2;SDS_P1;SDS_P2;PMS_P1;PMS_P2;Temp;Humidity;BMP_temperature;BMP_pressure;BME280_temperature;BME280_humidity;BME280_pressure;Samples;Min_cycle;Max_cycle;Signal;HPM_P1;HPM_P2
2023/10/10 00:00:47;;;;;;;12.88;4.43;;;11.40;98.30;;;;;;2083296;28;20259;-83
2023/10/10 00:01:48;;;;;;;10.88;5.15;;;11.40;98.10;;;;;;2078703;28;20387;-83
2023/10/10 00:02:51;;;;;;;10.13;4.20;;;11.40;97.90;;;;;;2075777;28;20686;-83
2023/10/10 00:03:51;;;;;;;10.73;4.72;;;11.30;97.90;;;;;;2081457;28;20228;-83
2023/10/10 00:04:54;;;;;;;12.63;4.57;;;11.30;97.90;;;;;;2076350;28;20275;-84
2023/10/10 00:05:58;;;;;;;9.70;3.97;;;11.30;97.70;;;;;;2082115;28;20228;-83
2023/10/10 00:07:04;;;;;;;10.35;4.25;;;11.30;97.80;;;;;;2084010;28;20259;-83
2023/10/10 00:08:09;;;;;;;8.23;4.35;;;11.30;97.90;;;;;;2092632;28;20709;-83
2023/10/10 00:09:12;;;;;;;11.32;4.85;;;11.30;97.90;;;;;;2082935;28;20191;-83
2023/10/10 00:10:13;;;;;;;9.45;4.20;;;11.20;98.00;;;;;;2078366;28;20221;-83
2023/10/10 00:11:14;;;;;;;11.80;5.23;;;11.10;98.40;;;;;;2080503;28;20235;-84
2023/10/10 00:12:25;;;;;;;11.13;4.55;;;11.00;99.00;;;;;;2090434;28;20271;-82
2023/10/10 00:13:26;;;;;;;9.75;4.10;;;11.00;99.20;;;;;;2091823;28;20224;-82
2023/10/10 00:14:29;;;;;;;11.73;4.50;;;11.00;98.90;;;;;;2090063;28;20219;-82
2023/10/10 00:15:38;;;;;;;13.77;4.78;;;11.10;98.60;;;;;;2091353;28;20232;-83
2023/10/10 00:16:40;;;;;;;12.15;4.28;;;11.10;98.60;;;;;;2084262;28;20641;-83
2023/10/10 00:17:42;;;;;;;11.98;4.75;;;11.20;98.50;;;;;;2080531;28;20236;-83
2023/10/10 00:18:46;;;;;;;11.60;4.15;;;11.20;98.40;;;;;;2080053;28;20250;-83
2023/10/10 00:19:54;;;;;;;10.25;3.88;;;11.20;98.30;;;;;;2082508;28;20305;-83
2023/10/10 00:21:07;;;;;;;11.60;3.95;;;11.20;98.30;;;;;;2072428;28;20217;-84
2023/10/10 00:22:09;;;;;;;11.35;4.25;;;11.30;98.00;;;;;;2074454;28;20231;-83
2023/10/10 00:23:11;;;;;;;12.18;4.38;;;11.30;98.30;;;;;;2075909;28;20231;-84
2023/10/10 00:24:14;;;;;;;10.77;4.55;;;11.30;97.70;;;;;;2089740;28;20179;-84
2023/10/10 00:25:16;;;;;;;8.52;3.67;;;11.30;97.50;;;;;;2082338;28;20194;-84
2023/10/10 00:26:20;;;;;;;10.45;4.40;;;11.20;97.60;;;;;;2075990;28;20598;-83
2023/10/10 00:27:23;;;;;;;9.02;4.60;;;11.20;97.70;;;;;;2075472;28;20231;-83
2023/10/10 00:28:27;;;;;;;9.55;4.38;;;11.20;97.50;;;;;;2068032;28;20232;-83
2023/10/10 00:29:28;;;;;;;9.40;4.20;;;11.30;97.40;;;;;;2068112;28;20683;-83
2023/10/10 00:30:34;;;;;;;9.55;3.83;;;11.30;97.00;;;;;;2075790;28;20241;-84
2023/10/10 00:31:43;;;;;;;11.95;4.90;;;11.30;96.90;;;;;;2084221;28;20260;-84
2023/10/10 00:32:46;;;;;;;10.25;4.32;;;11.20;96.80;;;;;;2076451;28;20229;-83
2023/10/10 00:33:50;;;;;;;11.85;4.53;;;11.20;96.60;;;;;;2072843;28;20224;-83
2023/10/10 00:34:50;;;;;;;10.43;4.32;;;11.10;96.80;;;;;;2077057;28;20217;-83
2023/10/10 00:35:51;;;;;;;10.97;4.43;;;11.10;96.80;;;;;;2081766;28;20223;-85
2023/10/10 00:36:52;;;;;;;7.73;4.13;;;11.10;96.90;;;;;;2076173;28;20217;-83
2023/10/10 00:37:53;;;;;;;10.33;4.50;;;11.10;97.10;;;;;;2076191;28;20227;-84
2023/10/10 00:39:06;;;;;;;14.67;4.50;;;11.10;97.10;;;;;;2067598;28;20225;-82
2023/10/10 00:40:15;;;;;;;9.75;4.70;;;11.10;97.30;;;;;;2071836;28;20221;-82
2023/10/10 00:41:15;;;;;;;12.32;4.50;;;11.10;97.30;;;;;;2085696;28;20192;-85
2023/10/10 00:42:19;;;;;;;12.23;4.13;;;11.10;97.20;;;;;;2087643;28;20180;-84
2023/10/10 00:43:23;;;;;;;9.32;4.20;;;11.10;97.30;;;;;;2084986;28;20191;-83
2023/10/10 00:44:25;;;;;;;12.45;4.00;;;11.10;97.30;;;;;;2078143;28;20276;-84
2023/10/10 00:45:31;;;;;;;10.75;4.10;;;11.10;97.30;;;;;;2094281;28;20250;-83
2023/10/10 00:46:32;;;;;;;12.18;4.13;;;11.00;97.30;;;;;;2076432;28;20220;-83
2023/10/10 00:47:38;;;;;;;12.40;4.75;;;11.00;97.10;;;;;;2061207;28;20585;-84
2023/10/10 00:48:39;;;;;;;12.75;3.83;;;11.00;97.10;;;;;;2070632;28;20229;-83
2023/10/10 00:49:44;;;;;;;9.23;4.00;;;11.00;96.80;;;;;;2084718;28;20224;-83
2023/10/10 00:50:47;;;;;;;11.35;3.92;;;11.00;96.50;;;;;;2073499;28;20315;-84
2023/10/10 00:51:47;;;;;;;13.45;4.45;;;11.00;96.30;;;;;;2085644;28;21542;-84
2023/10/10 00:52:55;;;;;;;9.93;4.47;;;11.00;96.10;;;;;;2085539;28;20260;-83
2023/10/10 00:54:26;;;;;;;11.45;4.43;;;10.90;96.20;;;;;;2078362;28;20757;-82
2023/10/10 00:55:33;;;;;;;11.77;4.60;;;10.90;96.10;;;;;;2084395;28;20759;-83
2023/10/10 00:56:35;;;;;;;11.88;4.10;;;10.90;96.10;;;;;;2091469;28;20235;-83
2023/10/10 00:57:36;;;;;;;11.02;3.92;;;10.90;96.30;;;;;;2085574;28;20259;-84
2023/10/10 00:58:40;;;;;;;11.55;4.03;;;10.90;96.60;;;;;;2077124;28;20217;-83
2023/10/10 00:59:45;;;;;;;13.48;4.45;;;10.90;96.50;;;;;;2079290;28;20237;-83
2023/10/10 01:00:47;;;;;;;10.10;3.65;;;10.90;96.40;;;;;;2081854;28;20241;-82
2023/10/10 01:01:49;;;;;;;12.50;4.20;;;10.90;96.30;;;;;;2088933;28;20303;-83
2023/10/10 01:03:01;;;;;;;11.55;4.55;;;10.80;96.40;;;;;;2093804;28;20307;-82
2023/10/10 01:04:05;;;;;;;15.27;4.97;;;10.90;96.30;;;;;;2073316;28;20257;-83
2023/10/10 01:05:12;;;;;;;12.55;4.38;;;10.80;96.40;;;;;;2077182;28;20185;-82
2023/10/10 01:06:20;;;;;;;12.45;4.45;;;10.80;96.30;;;;;;2087635;28;20191;-81
2023/10/10 01:07:21;;;;;;;11.48;4.47;;;10.80;96.10;;;;;;2086862;28;20196;-82
2023/10/10 01:08:30;;;;;;;8.82;3.72;;;10.80;96.30;;;;;;2076422;28;20247;-82
2023/10/10 01:09:35;;;;;;;9.88;4.15;;;10.70;96.20;;;;;;2084078;28;20229;-83
2023/10/10 01:10:43;;;;;;;8.27;3.83;;;10.70;96.40;;;;;;2091536;28;20759;-83
2023/10/10 01:11:48;;;;;;;8.23;4.05;;;10.70;96.30;;;;;;2088551;28;20228;-81
2023/10/10 01:12:48;;;;;;;12.15;4.00;;;10.70;96.40;;;;;;2084289;28;20220;-82
2023/10/10 01:13:52;;;;;;;11.67;4.47;;;10.60;96.30;;;;;;2083358;28;20239;-81
2023/10/10 01:14:57;;;;;;;7.75;4.10;;;10.60;96.30;;;;;;2093923;28;20212;-82
2023/10/10 01:15:58;;;;;;;8.77;4.13;;;10.60;96.40;;;;;;2101946;28;20248;-82
2023/10/10 01:16:59;;;;;;;10.48;4.10;;;10.60;96.70;;;;;;2085407;28;20291;-83
2023/10/10 01:18:00;;;;;;;10.83;4.17;;;10.60;96.50;;;;;;2084371;28;20839;-84
2023/10/10 01:19:01;;;;;;;8.87;4.03;;;10.50;96.60;;;;;;2086380;28;20228;-84
2023/10/10 01:20:20;;;;;;;11.77;3.90;;;10.50;96.80;;;;;;2078767;28;20316;-82
2023/10/10 01:21:30;;;;;;;9.98;4.18;;;10.40;96.90;;;;;;2087822;28;20235;-84
2023/10/10 01:22:38;;;;;;;8.10;4.03;;;10.40;96.90;;;;;;2091062;28;20233;-83
2023/10/10 01:23:39;;;;;;;9.80;3.83;;;10.30;97.00;;;;;;2081942;28;20265;-84
2023/10/10 01:24:41;;;;;;;9.13;4.33;;;10.30;97.00;;;;;;2074605;28;20232;-83
2023/10/10 01:25:46;;;;;;;10.23;4.22;;;10.30;97.60;;;;;;2084766;28;20260;-83
2023/10/10 01:26:50;;;;;;;9.10;4.10;;;10.30;97.30;;;;;;2085230;28;20232;-82
2023/10/10 01:27:54;;;;;;;12.65;4.28;;;10.30;97.30;;;;;;2085233;28;20632;-83
2023/10/10 01:28:55;;;;;;;12.63;4.20;;;10.30;97.30;;;;;;2091230;28;20224;-83
2023/10/10 01:30:17;;;;;;;12.90;4.40;;;10.30;97.30;;;;;;2085855;28;20228;-84
2023/10/10 01:31:18;;;;;;;9.55;3.70;;;10.20;97.30;;;;;;2078099;28;20579;-82
2023/10/10 01:32:20;;;;;;;9.53;3.97;;;10.20;97.40;;;;;;2076670;28;20191;-82
2023/10/10 01:33:35;;;;;;;8.35;4.00;;;10.20;97.30;;;;;;2077537;28;20181;-81
2023/10/10 01:34:45;;;;;;;8.18;3.88;;;10.20;97.30;;;;;;2086235;28;20285;-82
2023/10/10 01:35:46;;;;;;;9.50;3.97;;;10.10;97.20;;;;;;2086651;28;20699;-82
2023/10/10 01:36:50;;;;;;;8.20;4.33;;;10.10;97.10;;;;;;2093336;28;20230;-83
2023/10/10 01:37:54;;;;;;;10.15;4.38;;;10.20;97.20;;;;;;2084187;28;20257;-82
2023/10/10 01:38:59;;;;;;;11.40;4.35;;;10.20;97.30;;;;;;2076969;28;20213;-82
2023/10/10 01:40:16;;;;;;;8.98;4.30;;;10.20;97.20;;;;;;2070825;28;20231;-82
2023/10/10 01:41:23;;;;;;;13.63;4.05;;;10.20;97.20;;;;;;2078529;28;20692;-82
2023/10/10 01:42:44;;;;;;;11.20;4.38;;;10.20;97.40;;;;;;2076320;28;20252;-83
2023/10/10 01:43:53;;;;;;;11.77;4.03;;;10.20;97.50;;;;;;2080876;28;20240;-83
2023/10/10 01:44:54;;;;;;;10.70;4.45;;;10.10;97.90;;;;;;2084568;28;20268;-82
2023/10/10 01:46:18;;;;;;;9.38;3.72;;;10.00;98.00;;;;;;2084890;28;20219;-83
2023/10/10 01:47:26;;;;;;;9.65;4.20;;;10.00;98.10;;;;;;2083156;28;20220;-83
2023/10/10 01:48:26;;;;;;;11.93;3.72;;;10.10;97.90;;;;;;2085140;28;20277;-82
2023/10/10 01:49:29;;;;;;;11.43;4.40;;;10.10;97.60;;;;;;2083987;28;20238;-82
2023/10/10 01:50:33;;;;;;;11.32;4.05;;;10.00;97.50;;;;;;2076327;28;20243;-83
2023/10/10 01:51:42;;;;;;;10.38;3.92;;;10.00;97.50;;;;;;2076491;28;20281;-83
2023/10/10 01:52:45;;;;;;;10.05;4.07;;;10.10;97.50;;;;;;2079491;28;20228;-82
2023/10/10 01:53:48;;;;;;;9.40;4.15;;;10.10;97.20;;;;;;2082410;28;20314;-82
2023/10/10 01:54:53;;;;;;;10.10;4.90;;;10.00;97.20;;;;;;2084525;28;20235;-82
2023/10/10 01:55:53;;;;;;;9.63;4.28;;;10.00;97.20;;;;;;2081406;28;20238;-82
2023/10/10 01:56:55;;;;;;;12.10;4.03;;;10.00;97.50;;;;;;2084519;28;20236;-82
2023/10/10 01:58:01;;;;;;;11.73;3.88;;;10.00;97.30;;;;;;2084294;28;20269;-82
2023/10/10 01:59:03;;;;;;;7.88;3.97;;;10.00;97.30;;;;;;2082023;28;20229;-82
2023/10/10 02:00:21;;;;;;;10.13;4.07;;;9.90;97.30;;;;;;2092867;28;20172;-82
2023/10/10 02:01:24;;;;;;;9.35;3.60;;;9.90;97.40;;;;;;2084428;28;20225;-82
2023/10/10 02:02:27;;;;;;;10.15;4.75;;;9.90;97.50;;;;;;2075870;28;20233;-83
2023/10/10 02:03:27;;;;;;;9.23;4.00;;;9.90;97.50;;;;;;2086497;28;20229;-82
2023/10/10 02:04:34;;;;;;;10.10;4.70;;;9.90;97.40;;;;;;2080559;28;20222;-82
2023/10/10 02:06:37;;;;;;;7.37;3.83;;;9.80;97.50;;;;;;2092163;28;20318;-83
2023/10/10 02:07:39;;;;;;;7.63;3.85;;;9.80;97.60;;;;;;2090239;28;20225;-84
2023/10/10 02:08:44;;;;;;;14.13;4.15;;;9.80;97.50;;;;;;2090760;28;20247;-83
2023/10/10 02:09:53;;;;;;;13.43;4.22;;;9.80;97.60;;;;;;2083875;28;20286;-83
2023/10/10 02:10:55;;;;;;;10.50;4.15;;;9.80;97.50;;;;;;2077078;28;20356;-82
2023/10/10 02:11:56;;;;;;;9.85;4.22;;;9.70;97.60;;;;;;2072082;28;20255;-82
2023/10/10 02:13:05;;;;;;;14.33;4.20;;;9.80;97.40;;;;;;2084388;28;20293;-83
2023/10/10 02:14:11;;;;;;;11.88;3.90;;;9.70;97.50;;;;;;2090708;28;20229;-83
2023/10/10 02:15:15;;;;;;;11.50;4.47;;;9.70;98.10;;;;;;2091101;28;20196;-82
2023/10/10 02:16:23;;;;;;;11.32;4.32;;;9.60;97.70;;;;;;2078347;28;20231;-83
2023/10/10 02:17:26;;;;;;;8.70;3.70;;;9.60;97.70;;;;;;2070082;28;20686;-83
2023/10/10 02:19:53;;;;;;;7.43;3.88;;;9.60;97.80;;;;;;2085073;28;20229;-82
2023/10/10 02:20:54;;;;;;;10.40;4.75;;;9.60;97.90;;;;;;2080833;28;20339;-83
2023/10/10 02:22:12;;;;;;;9.80;4.37;;;9.50;97.70;;;;;;2079285;28;20227;-83
2023/10/10 02:23:32;;;;;;;12.95;4.82;;;9.50;97.90;;;;;;2083347;28;20216;-82
2023/10/10 02:25:40;;;;;;;13.07;4.30;;;9.50;98.20;;;;;;2091057;28;20229;-83
2023/10/10 02:26:41;;;;;;;9.02;3.70;;;9.40;98.30;;;;;;2080873;28;20250;-84
2023/10/10 02:28:00;;;;;;;12.80;4.20;;;9.40;98.50;;;;;;2082479;28;20227;-82
2023/10/10 02:30:34;;;;;;;11.75;4.30;;;9.50;98.40;;;;;;2093076;28;20238;-82
2023/10/10 02:31:35;;;;;;;8.65;3.70;;;9.40;98.20;;;;;;2076936;28;20658;-83
2023/10/10 02:32:35;;;;;;;11.97;4.50;;;9.30;98.40;;;;;;2077912;28;20263;-82
2023/10/10 02:33:37;;;;;;;11.03;4.20;;;9.30;98.90;;;;;;2092329;28;20256;-82
2023/10/10 02:34:38;;;;;;;10.52;4.03;;;9.30;99.00;;;;;;2092911;28;20349;-83
2023/10/10 02:35:54;;;;;;;9.82;3.88;;;9.30;98.80;;;;;;2082703;28;20223;-82
2023/10/10 02:37:30;;;;;;;10.88;3.97;;;9.40;98.70;;;;;;2088722;28;20292;-80
2023/10/10 02:38:33;;;;;;;10.75;3.95;;;9.40;98.50;;;;;;2094396;28;20234;-83
2023/10/10 02:39:41;;;;;;;9.05;3.78;;;9.40;98.40;;;;;;2081225;28;20241;-83
2023/10/10 02:40:43;;;;;;;9.45;3.63;;;9.30;98.30;;;;;;2084128;28;20237;-83
2023/10/10 02:41:57;;;;;;;13.75;4.25;;;9.30;98.30;;;;;;2092305;28;20228;-82
2023/10/10 02:43:33;;;;;;;11.57;5.05;;;9.40;98.30;;;;;;2084427;28;20212;-83
2023/10/10 02:45:35;;;;;;;9.73;3.90;;;9.30;98.10;;;;;;2083203;28;20233;-82
2023/10/10 02:46:42;;;;;;;5.20;3.20;;;9.30;98.30;;;;;;2083848;28;20253;-83
2023/10/10 02:47:52;;;;;;;8.93;4.05;;;9.30;98.40;;;;;;2077026;28;20237;-83
2023/10/10 02:48:55;;;;;;;11.23;4.38;;;9.30;98.60;;;;;;2070147;28;20222;-83
2023/10/10 02:50:15;;;;;;;10.95;4.13;;;9.30;98.80;;;;;;2075938;28;20253;-82
2023/10/10 02:51:16;;;;;;;10.00;4.13;;;9.30;98.90;;;;;;2081419;28;20262;-83
2023/10/10 02:52:24;;;;;;;8.30;3.90;;;9.30;98.90;;;;;;2083340;28;20183;-83
2023/10/10 02:53:24;;;;;;;11.32;4.45;;;9.20;99.20;;;;;;2091252;28;20220;-84
2023/10/10 02:54:34;;;;;;;12.50;4.37;;;9.30;99.30;;;;;;2090756;28;20589;-83
2023/10/10 02:55:41;;;;;;;6.97;3.60;;;9.30;99.40;;;;;;2090320;28;20233;-83
2023/10/10 02:56:43;;;;;;;12.63;4.35;;;9.30;99.40;;;;;;2082569;28;20239;-83
2023/10/10 02:57:46;;;;;;;12.90;4.60;;;9.30;99.50;;;;;;2091309;28;20785;-83
2023/10/10 02:58:54;;;;;;;9.45;3.97;;;9.30;99.50;;;;;;2091551;28;20224;-82
2023/10/10 03:00:00;;;;;;;11.32;3.95;;;9.40;99.40;;;;;;2083481;28;20223;-82
2023/10/10 03:01:03;;;;;;;10.70;3.83;;;9.40;99.40;;;;;;2071799;28;20742;-83
2023/10/10 03:02:29;;;;;;;12.57;4.57;;;9.40;99.70;;;;;;2080049;28;20215;-83
2023/10/10 03:03:30;;;;;;;12.98;4.60;;;9.40;99.60;;;;;;2088892;28;20366;-83
2023/10/10 03:05:50;;;;;;;12.90;4.10;;;9.40;99.60;;;;;;2085755;28;20228;-83
2023/10/10 03:06:51;;;;;;;10.27;4.20;;;9.30;99.80;;;;;;2088724;28;20274;-82
2023/10/10 03:07:51;;;;;;;10.87;4.40;;;9.40;99.90;;;;;;2077070;28;20307;-82
2023/10/10 03:08:55;;;;;;;12.80;4.43;;;9.50;99.90;;;;;;2083373;28;20212;-82
2023/10/10 03:10:46;;;;;;;10.50;4.32;;;9.60;99.60;;;;;;2090841;28;20211;-82
2023/10/10 03:11:35;;;;;;;13.55;4.20;;;9.60;99.40;;;;;;2076074;28;20256;-82
2023/10/10 03:12:38;;;;;;;10.98;3.92;;;9.50;99.50;;;;;;2084002;28;20317;-83
2023/10/10 03:13:47;;;;;;;9.85;4.07;;;9.60;99.80;;;;;;2084167;28;20228;-82
2023/10/10 03:14:53;;;;;;;10.98;4.47;;;9.60;99.60;;;;;;2085049;28;20594;-83
2023/10/10 03:16:12;;;;;;;11.27;4.18;;;9.50;99.70;;;;;;2073435;28;20211;-83
2023/10/10 03:18:35;;;;;;;11.13;4.53;;;9.50;99.60;;;;;;2081432;28;20227;-83
2023/10/10 03:19:39;;;;;;;10.45;4.00;;;9.60;99.70;;;;;;2078465;28;20304;-83
2023/10/10 03:21:12;;;;;;;14.65;4.53;;;9.60;99.60;;;;;;2074575;28;20225;-83
2023/10/10 03:22:52;;;;;;;9.95;4.22;;;9.50;99.80;;;;;;2087918;28;20215;-86
2023/10/10 03:23:55;;;;;;;11.80;4.30;;;9.50;99.90;;;;;;2090227;28;20224;-83
2023/10/10 03:25:21;;;;;;;12.10;4.32;;;9.60;99.90;;;;;;2081309;28;20290;-83
2023/10/10 03:28:04;;;;;;;10.55;4.30;;;9.70;99.80;;;;;;2061526;28;20307;-85
2023/10/10 03:29:10;;;;;;;11.52;4.45;;;9.80;99.90;;;;;;2075952;28;20310;-83
2023/10/10 03:30:20;;;;;;;10.52;4.20;;;9.80;99.90;;;;;;2074702;28;20320;-83
2023/10/10 03:31:31;;;;;;;12.13;4.22;;;9.80;99.90;;;;;;2085148;28;20222;-83
2023/10/10 03:32:33;;;;;;;10.02;3.85;;;9.70;99.80;;;;;;2082646;28;20228;-83
2023/10/10 03:34:44;;;;;;;8.52;4.30;;;9.70;99.80;;;;;;2083094;28;20224;-83
2023/10/10 03:36:05;;;;;;;14.40;4.70;;;9.70;99.80;;;;;;2082989;28;20353;-83
2023/10/10 03:37:21;;;;;;;13.80;4.45;;;9.60;99.90;;;;;;2079773;28;20211;-85
2023/10/10 03:38:45;;;;;;;9.90;4.40;;;9.70;99.90;;;;;;2074735;28;20625;-83
2023/10/10 03:40:04;;;;;;;12.98;4.20;;;9.70;99.90;;;;;;2075140;28;20251;-84
2023/10/10 05:23:34;;;;;;;11.10;4.60;;;9.90;99.90;;;;;;2088514;28;20675;-81
2023/10/10 05:24:42;;;;;;;11.63;4.80;;;9.90;99.90;;;;;;2074372;28;20313;-81
2023/10/10 05:25:43;;;;;;;13.98;4.47;;;10.00;99.90;;;;;;2077783;28;20232;-83
2023/10/10 05:26:47;;;;;;;13.20;4.53;;;10.10;99.90;;;;;;2083509;28;20281;-83
2023/10/10 05:27:47;;;;;;;14.88;5.30;;;10.00;99.90;;;;;;2079586;28;20235;-82
2023/10/10 05:28:48;;;;;;;14.83;4.93;;;10.00;99.90;;;;;;2080565;28;20753;-82
2023/10/10 05:29:50;;;;;;;16.37;4.40;;;9.90;99.90;;;;;;2088769;28;20237;-83
2023/10/10 05:30:55;;;;;;;11.10;4.55;;;10.00;99.90;;;;;;2084843;28;20477;-82
2023/10/10 05:31:59;;;;;;;11.20;5.18;;;10.00;99.90;;;;;;2085909;28;20287;-83
2023/10/10 05:33:03;;;;;;;13.05;4.78;;;10.00;99.90;;;;;;2084848;28;20224;-82
2023/10/10 05:34:04;;;;;;;13.15;5.18;;;10.00;99.90;;;;;;2079547;28;20229;-82
2023/10/10 05:35:11;;;;;;;12.17;5.40;;;10.00;99.90;;;;;;2082740;28;20635;-81
2023/10/10 05:36:13;;;;;;;15.70;6.03;;;9.90;99.90;;;;;;2076992;28;20189;-82
2023/10/10 05:37:15;;;;;;;15.48;5.07;;;9.90;99.90;;;;;;2075069;28;20191;-83
2023/10/10 05:38:19;;;;;;;11.95;5.18;;;9.90;99.90;;;;;;2076173;28;20247;-82
2023/10/10 05:39:23;;;;;;;14.18;5.35;;;9.90;99.90;;;;;;2088340;28;20211;-83
2023/10/10 05:40:24;;;;;;;15.98;5.53;;;10.00;99.90;;;;;;2083501;28;20649;-83
2023/10/10 05:41:25;;;;;;;15.05;5.72;;;10.00;99.90;;;;;;2084351;28;20320;-83
2023/10/10 05:42:33;;;;;;;18.60;5.57;;;10.00;99.90;;;;;;2092583;28;20258;-83
2023/10/10 05:43:35;;;;;;;17.00;5.20;;;10.00;99.90;;;;;;2092230;28;20224;-83
2023/10/10 05:44:38;;;;;;;13.55;5.22;;;10.10;99.90;;;;;;2083056;28;20938;-82
2023/10/10 05:45:39;;;;;;;14.57;5.78;;;10.10;99.90;;;;;;2076543;28;20300;-83
2023/10/10 05:46:40;;;;;;;15.77;4.83;;;10.10;99.90;;;;;;2082272;28;20256;-83
2023/10/10 05:47:40;;;;;;;15.23;5.60;;;10.00;99.90;;;;;;2090417;28;20236;-83
2023/10/10 05:48:41;;;;;;;13.07;5.13;;;10.10;99.90;;;;;;2088838;28;20746;-84
2023/10/10 05:49:41;;;;;;;11.73;5.87;;;10.10;99.90;;;;;;2090508;28;20608;-83
2023/10/10 05:50:42;;;;;;;12.57;5.83;;;10.10;99.90;;;;;;2092057;28;20266;-83
2023/10/10 05:51:43;;;;;;;14.73;5.10;;;10.20;99.90;;;;;;2078108;28;20231;-83
2023/10/10 05:52:46;;;;;;;12.50;5.47;;;10.20;99.90;;;;;;2083677;28;20232;-84
2023/10/10 05:53:47;;;;;;;14.80;4.82;;;10.30;99.90;;;;;;2091004;28;20718;-83
2023/10/10 05:54:47;;;;;;;11.70;4.87;;;10.30;99.90;;;;;;2091871;28;20259;-83
2023/10/10 05:55:51;;;;;;;13.17;4.77;;;10.50;99.90;;;;;;2093178;28;20244;-83
2023/10/10 05:56:52;;;;;;;11.52;5.38;;;10.50;99.90;;;;;;2093529;28;20235;-83
2023/10/10 05:57:52;;;;;;;18.80;5.33;;;10.40;99.90;;;;;;2080784;28;21689;-83
2023/10/10 05:58:53;;;;;;;12.83;5.13;;;10.40;99.90;;;;;;2077801;28;20279;-84
2023/10/10 05:59:53;;;;;;;14.83;5.97;;;10.40;99.90;;;;;;2084775;28;20598;-83
2023/10/10 06:00:54;;;;;;;12.87;5.20;;;10.40;99.90;;;;;;2078419;28;20237;-83
2023/10/10 06:01:55;;;;;;;14.35;6.07;;;10.40;99.90;;;;;;2093170;28;20226;-84
2023/10/10 06:02:56;;;;;;;14.43;5.73;;;10.50;99.90;;;;;;2090301;28;20216;-84
2023/10/10 06:03:57;;;;;;;13.70;5.40;;;10.60;99.90;;;;;;2091456;28;20248;-84
2023/10/10 06:04:58;;;;;;;17.40;5.22;;;10.60;99.90;;;;;;2089668;28;20300;-84
2023/10/10 06:05:59;;;;;;;11.70;4.60;;;10.70;99.90;;;;;;2084540;28;20221;-84
2023/10/10 06:06:59;;;;;;;12.27;5.07;;;10.80;99.90;;;;;;2073224;28;20220;-83
2023/10/10 06:08:01;;;;;;;13.27;4.93;;;10.90;99.90;;;;;;2081953;28;20232;-84
2023/10/10 06:09:04;;;;;;;13.15;5.03;;;10.80;99.90;;;;;;2083409;28;20224;-83
2023/10/10 06:10:06;;;;;;;17.58;5.45;;;10.80;99.90;;;;;;2077703;28;20197;-83
2023/10/10 06:11:06;;;;;;;13.00;5.30;;;10.80;99.90;;;;;;2075908;28;20211;-84
2023/10/10 06:12:09;;;;;;;15.27;4.87;;;10.80;99.90;;;;;;2079519;28;20708;-83
2023/10/10 06:13:11;;;;;;;13.40;4.85;;;10.90;99.90;;;;;;2082558;28;20205;-84
2023/10/10 06:14:11;;;;;;;13.50;4.63;;;10.90;99.90;;;;;;2084661;28;20279;-83
2023/10/10 06:15:16;;;;;;;16.67;5.33;;;11.00;99.90;;;;;;2084686;28;20192;-83
2023/10/10 06:16:17;;;;;;;10.93;4.72;;;11.10;99.90;;;;;;2083977;28;20271;-83
2023/10/10 06:17:17;;;;;;;14.87;5.07;;;11.20;99.90;;;;;;2083065;28;20195;-83
2023/10/10 06:18:18;;;;;;;14.20;5.17;;;11.20;99.90;;;;;;2084002;28;20177;-82
2023/10/10 06:19:20;;;;;;;15.77;5.37;;;11.30;99.90;;;;;;2093844;28;20208;-81
2023/10/10 06:20:21;;;;;;;14.10;4.72;;;11.30;99.90;;;;;;2098292;28;20257;-85
2023/10/10 06:21:22;;;;;;;14.77;5.23;;;11.40;99.90;;;;;;2092496;28;20243;-85
2023/10/10 06:22:24;;;;;;;15.83;5.03;;;11.40;99.90;;;;;;2089307;28;20240;-87
2023/10/10 06:23:25;;;;;;;14.32;4.57;;;11.40;99.90;;;;;;2083575;28;20260;-87
2023/10/10 06:24:26;;;;;;;11.25;4.57;;;11.50;99.90;;;;;;2084504;28;20262;-86
2023/10/10 06:25:29;;;;;;;10.82;4.50;;;11.50;99.90;;;;;;2084214;28;20264;-84
2023/10/10 06:26:29;;;;;;;14.55;4.80;;;11.60;99.90;;;;;;2083738;28;20566;-84
2023/10/10 06:27:32;;;;;;;14.63;4.80;;;11.60;99.90;;;;;;2084837;28;20290;-84
2023/10/10 06:28:45;;;;;;;14.23;4.50;;;11.70;99.90;;;;;;2077899;28;20221;-83
2023/10/10 06:29:48;;;;;;;14.00;4.30;;;11.80;99.90;;;;;;2084182;28;20235;-84
2023/10/10 06:30:53;;;;;;;14.80;4.85;;;11.80;99.90;;;;;;2080673;28;20221;-83
2023/10/10 06:31:53;;;;;;;12.57;4.70;;;11.80;99.90;;;;;;2082913;28;20335;-83
2023/10/10 06:33:08;;;;;;;13.17;4.70;;;11.90;99.90;;;;;;2086866;28;20232;-83
2023/10/10 06:34:22;;;;;;;10.70;4.25;;;11.90;99.90;;;;;;2077553;28;20244;-84
2023/10/10 06:37:27;;;;;;;12.60;4.67;;;12.00;99.90;;;;;;2091585;28;20226;-84
2023/10/10 06:38:28;;;;;;;12.38;4.40;;;12.10;99.90;;;;;;2092342;28;20885;-84
2023/10/10 06:39:54;;;;;;;13.97;5.27;;;12.10;99.90;;;;;;2091031;28;20230;-83
2023/10/10 06:40:53;;;;;;;12.60;4.50;;;12.20;99.90;;;;;;2088099;28;21074;-84
2023/10/10 06:41:54;;;;;;;11.38;4.43;;;12.20;99.90;;;;;;2091918;28;20235;-83
2023/10/10 06:42:56;;;;;;;12.83;4.43;;;12.30;99.90;;;;;;2085062;28;20220;-84
2023/10/10 06:43:57;;;;;;;12.52;4.68;;;12.30;99.90;;;;;;2076287;28;20309;-84
2023/10/10 06:45:07;;;;;;;11.70;4.20;;;12.40;99.90;;;;;;2073198;28;20218;-85
2023/10/10 06:46:16;;;;;;;11.77;4.80;;;12.40;99.90;;;;;;2070850;28;20241;-84
2023/10/10 06:47:17;;;;;;;10.93;4.65;;;12.50;99.90;;;;;;2072928;28;20203;-84
2023/10/10 06:48:21;;;;;;;10.20;4.63;;;12.50;99.90;;;;;;2076069;28;20193;-84
2023/10/10 06:49:23;;;;;;;18.20;4.43;;;12.50;99.90;;;;;;2073469;28;20744;-84
2023/10/10 06:50:23;;;;;;;12.52;3.95;;;12.60;99.90;;;;;;2082800;28;20311;-85
2023/10/10 06:51:24;;;;;;;13.17;4.50;;;12.70;99.90;;;;;;2090970;28;20227;-83
2023/10/10 06:52:27;;;;;;;14.33;4.37;;;12.60;99.90;;;;;;2084752;28;20239;-83
2023/10/10 06:53:36;;;;;;;15.15;4.55;;;12.60;99.90;;;;;;2076171;28;20315;-83
2023/10/10 06:54:44;;;;;;;16.15;4.90;;;12.70;99.90;;;;;;2071808;28;20231;-83
2023/10/10 06:55:45;;;;;;;12.98;4.32;;;12.70;99.90;;;;;;2068864;28;20261;-84
2023/10/10 06:57:04;;;;;;;12.57;4.43;;;12.80;99.80;;;;;;2084033;28;20259;-83
2023/10/10 06:58:08;;;;;;;15.98;5.20;;;12.80;99.90;;;;;;2080596;28;20731;-84
2023/10/10 06:59:09;;;;;;;13.98;5.18;;;12.90;99.70;;;;;;2073727;28;20189;-83
2023/10/10 07:01:19;;;;;;;13.60;5.15;;;12.90;99.70;;;;;;2085963;28;20669;-83
2023/10/10 07:02:23;;;;;;;13.18;4.72;;;13.00;99.30;;;;;;2083068;28;20184;-84
2023/10/10 07:03:30;;;;;;;11.88;4.78;;;12.90;99.70;;;;;;2090081;28;20228;-83
2023/10/10 07:04:35;;;;;;;12.63;4.85;;;12.90;99.40;;;;;;2095820;28;20218;-82
2023/10/10 07:05:39;;;;;;;11.77;4.95;;;13.00;99.50;;;;;;2092117;28;20212;-88
2023/10/10 07:06:44;;;;;;;14.50;4.93;;;13.00;99.50;;;;;;2083191;28;20251;-85
2023/10/10 07:07:46;;;;;;;12.85;4.55;;;13.00;99.50;;;;;;2079933;28;20231;-87
2023/10/10 07:09:04;;;;;;;13.20;4.70;;;13.00;99.50;;;;;;2081801;28;20612;-83
2023/10/10 07:10:09;;;;;;;13.20;4.38;;;13.10;99.40;;;;;;2082893;28;20285;-83
2023/10/10 07:11:20;;;;;;;11.55;3.88;;;13.10;99.30;;;;;;2093891;28;20682;-84
2023/10/10 07:12:20;;;;;;;9.27;3.95;;;13.10;99.20;;;;;;2091485;28;20302;-82
2023/10/10 07:13:29;;;;;;;11.37;4.40;;;13.20;99.10;;;;;;2092819;28;20268;-83
2023/10/10 07:14:29;;;;;;;12.98;4.63;;;13.30;98.90;;;;;;2088887;28;20579;-84
2023/10/10 07:15:34;;;;;;;11.80;4.07;;;13.40;99.00;;;;;;2090662;28;20273;-83
2023/10/10 07:16:35;;;;;;;11.93;4.95;;;13.40;99.10;;;;;;2090687;28;20232;-84
2023/10/10 07:17:38;;;;;;;10.93;3.90;;;13.40;98.90;;;;;;2089507;28;20221;-83
2023/10/10 07:18:40;;;;;;;13.23;4.22;;;13.50;98.80;;;;;;2081359;28;20224;-83
2023/10/10 07:21:04;;;;;;;11.55;4.10;;;13.70;98.40;;;;;;2082772;28;20253;-83
2023/10/10 07:22:04;;;;;;;12.05;4.45;;;13.70;98.10;;;;;;2085283;28;20188;-83
2023/10/10 07:23:07;;;;;;;14.27;4.73;;;13.70;98.10;;;;;;2075754;28;20243;-83
2023/10/10 07:24:14;;;;;;;10.05;3.80;;;13.80;98.00;;;;;;2075113;28;20249;-84
2023/10/10 07:25:43;;;;;;;14.65;4.30;;;13.90;97.90;;;;;;2083298;28;20212;-84
2023/10/10 07:26:41;;;;;;;13.32;4.47;;;14.00;97.70;;;;;;2091362;28;20223;-83
2023/10/10 07:27:43;;;;;;;10.13;4.22;;;14.10;98.40;;;;;;2089506;28;20244;-84
2023/10/10 07:28:48;;;;;;;12.10;4.10;;;14.20;97.60;;;;;;2088863;28;20224;-84
2023/10/10 07:30:50;;;;;;;12.83;4.40;;;14.40;96.80;;;;;;2092301;28;20228;-83
2023/10/10 07:31:53;;;;;;;7.78;4.13;;;14.50;96.60;;;;;;2089449;28;20695;-83
2023/10/10 07:32:53;;;;;;;10.70;4.37;;;14.70;96.30;;;;;;2088459;28;20643;-83
2023/10/10 07:33:55;;;;;;;16.23;4.73;;;14.80;95.90;;;;;;2083525;28;20548;-84
2023/10/10 07:34:58;;;;;;;9.40;3.70;;;14.90;95.70;;;;;;2088726;28;20359;-84
2023/10/10 07:36:00;;;;;;;11.83;4.50;;;15.00;95.70;;;;;;2086388;28;20461;-83
2023/10/10 07:37:09;;;;;;;8.37;4.30;;;15.00;95.60;;;;;;2083492;28;20473;-83